sensor_id;sensor_type;location;lat;lon;timestamp;temperature;humidity
68844;DHT22;55850;51.244;6.824;2022-07-23T00:01:38;18.10;76.43
68844;DHT22;55850;51.244;6.824;2022-07-23T00:06:47;18.06;76.42
68844;DHT22;55850;51.244;6.824;2022-07-23T00:11:52;17.91;77.16
68844;DHT22;55850;51.244;6.824;2022-07-23T00:16:57;18.21;75.59
68844;DHT22;55850;51.244;6.824;2022-07-23T00:22:05;18.23;75.56
68844;DHT22;55850;51.244;6.824;2022-07-23T00:27:11;18.36;75.75
68844;DHT22;55850;51.244;6.824;2022-07-23T00:32:16;18.54;74.71
68844;DHT22;55850;51.244;6.824;2022-07-23T00:37:44;18.62;74.83
68844;DHT22;55850;51.244;6.824;2022-07-23T00:42:49;18.40;76.16
68844;DHT22;55850;51.244;6.824;2022-07-23T00:47:55;18.44;76.21
68844;DHT22;55850;51.244;6.824;2022-07-23T00:53:03;18.58;75.36
68844;DHT22;55850;51.244;6.824;2022-07-23T00:58:11;18.51;75.87
68844;DHT22;55850;51.244;6.824;2022-07-23T01:03:16;18.84;75.62
68844;DHT22;55850;51.244;6.824;2022-07-23T01:08:24;18.51;77.48
68844;DHT22;55850;51.244;6.824;2022-07-23T01:13:30;18.75;76.28
68844;DHT22;55850;51.244;6.824;2022-07-23T01:18:35;18.68;76.40
68844;DHT22;55850;51.244;6.824;2022-07-23T01:23:43;18.66;76.76
68844;DHT22;55850;51.244;6.824;2022-07-23T01:28:49;18.71;76.58
68844;DHT22;55850;51.244;6.824;2022-07-23T01:33:55;18.76;76.50
68844;DHT22;55850;51.244;6.824;2022-07-23T01:39:05;18.58;76.97
68844;DHT22;55850;51.244;6.824;2022-07-23T01:44:10;18.95;75.84
68844;DHT22;55850;51.244;6.824;2022-07-23T01:49:17;18.61;76.61
68844;DHT22;55850;51.244;6.824;2022-07-23T01:54:50;18.49;77.16
68844;DHT22;55850;51.244;6.824;2022-07-23T01:59:56;18.68;76.18
68844;DHT22;55850;51.244;6.824;2022-07-23T02:05:01;18.41;77.17
68844;DHT22;55850;51.244;6.824;2022-07-23T02:10:10;18.49;76.89
68844;DHT22;55850;51.244;6.824;2022-07-23T02:15:15;18.52;76.46
68844;DHT22;55850;51.244;6.824;2022-07-23T02:20:21;18.65;76.17
68844;DHT22;55850;51.244;6.824;2022-07-23T02:25:29;18.58;76.07
68844;DHT22;55850;51.244;6.824;2022-07-23T02:30:36;18.26;77.29
68844;DHT22;55850;51.244;6.824;2022-07-23T02:35:45;18.48;76.45
68844;DHT22;55850;51.244;6.824;2022-07-23T02:40:56;18.44;76.70
68844;DHT22;55850;51.244;6.824;2022-07-23T02:46:02;18.30;77.77
68844;DHT22;55850;51.244;6.824;2022-07-23T02:51:08;18.24;77.38
68844;DHT22;55850;51.244;6.824;2022-07-23T02:56:24;18.27;77.24
68844;DHT22;55850;51.244;6.824;2022-07-23T03:01:31;18.37;76.96
68844;DHT22;55850;51.244;6.824;2022-07-23T03:06:37;18.45;76.24
68844;DHT22;55850;51.244;6.824;2022-07-23T03:11:45;18.41;76.19
68844;DHT22;55850;51.244;6.824;2022-07-23T03:16:51;18.14;77.24
68844;DHT22;55850;51.244;6.824;2022-07-23T03:21:57;18.18;77.19
68844;DHT22;55850;51.244;6.824;2022-07-23T03:27:05;18.10;76.81
68844;DHT22;55850;51.244;6.824;2022-07-23T03:32:10;18.16;76.34
68844;DHT22;55850;51.244;6.824;2022-07-23T03:37:17;18.07;76.81
68844;DHT22;55850;51.244;6.824;2022-07-23T03:42:25;17.99;76.57
68844;DHT22;55850;51.244;6.824;2022-07-23T03:47:31;18.04;76.55
68844;DHT22;55850;51.244;6.824;2022-07-23T03:52:38;18.06;76.10
68844;DHT22;55850;51.244;6.824;2022-07-23T03:57:46;18.26;75.26
68844;DHT22;55850;51.244;6.824;2022-07-23T04:02:51;18.20;75.45
68844;DHT22;55850;51.244;6.824;2022-07-23T04:07:57;18.00;76.45
68844;DHT22;55850;51.244;6.824;2022-07-23T04:13:05;17.96;76.51
68844;DHT22;55850;51.244;6.824;2022-07-23T04:18:10;17.93;76.64
68844;DHT22;55850;51.244;6.824;2022-07-23T04:23:32;17.96;76.73
68844;DHT22;55850;51.244;6.824;2022-07-23T04:28:40;17.96;76.62
68844;DHT22;55850;51.244;6.824;2022-07-23T04:33:46;18.06;76.24
68844;DHT22;55850;51.244;6.824;2022-07-23T04:38:51;17.96;76.73
68844;DHT22;55850;51.244;6.824;2022-07-23T04:43:59;18.11;76.41
68844;DHT22;55850;51.244;6.824;2022-07-23T04:49:05;18.10;76.81
68844;DHT22;55850;51.244;6.824;2022-07-23T04:54:11;18.36;76.01
68844;DHT22;55850;51.244;6.824;2022-07-23T04:59:21;18.96;74.60
68844;DHT22;55850;51.244;6.824;2022-07-23T05:04:32;19.28;73.91
68844;DHT22;55850;51.244;6.824;2022-07-23T05:09:38;19.70;72.71
68844;DHT22;55850;51.244;6.824;2022-07-23T05:14:46;20.06;71.34
68844;DHT22;55850;51.244;6.824;2022-07-23T05:19:52;20.47;70.13
68844;DHT22;55850;51.244;6.824;2022-07-23T05:25:04;20.64;69.31
68844;DHT22;55850;51.244;6.824;2022-07-23T05:30:13;20.83;69.16
68844;DHT22;55850;51.244;6.824;2022-07-23T05:35:21;21.35;68.21
68844;DHT22;55850;51.244;6.824;2022-07-23T05:40:53;21.28;67.34
68844;DHT22;55850;51.244;6.824;2022-07-23T05:46:02;21.73;66.19
68844;DHT22;55850;51.244;6.824;2022-07-23T05:51:09;21.85;65.94
68844;DHT22;55850;51.244;6.824;2022-07-23T05:56:14;22.55;64.37
68844;DHT22;55850;51.244;6.824;2022-07-23T06:01:22;22.54;63.99
68844;DHT22;55850;51.244;6.824;2022-07-23T06:06:47;23.46;62.50
68844;DHT22;55850;51.244;6.824;2022-07-23T06:11:52;23.49;61.37
68844;DHT22;55850;51.244;6.824;2022-07-23T06:17:00;23.45;61.21
68844;DHT22;55850;51.244;6.824;2022-07-23T06:22:06;23.54;60.67
68844;DHT22;55850;51.244;6.824;2022-07-23T06:27:12;23.34;62.10
68844;DHT22;55850;51.244;6.824;2022-07-23T06:32:20;23.97;59.92
68844;DHT22;55850;51.244;6.824;2022-07-23T06:37:25;24.35;58.77
68844;DHT22;55850;51.244;6.824;2022-07-23T06:42:31;23.73;59.01
68844;DHT22;55850;51.244;6.824;2022-07-23T06:47:41;24.55;58.98
68844;DHT22;55850;51.244;6.824;2022-07-23T06:52:47;24.53;57.04
68844;DHT22;55850;51.244;6.824;2022-07-23T06:57:52;24.56;57.79
68844;DHT22;55850;51.244;6.824;2022-07-23T07:03:00;24.01;59.93
68844;DHT22;55850;51.244;6.824;2022-07-23T07:08:06;24.90;57.30
68844;DHT22;55850;51.244;6.824;2022-07-23T07:13:12;25.38;56.24
68844;DHT22;55850;51.244;6.824;2022-07-23T07:18:21;25.41;54.86
68844;DHT22;55850;51.244;6.824;2022-07-23T07:23:26;24.83;56.53
68844;DHT22;55850;51.244;6.824;2022-07-23T07:28:32;25.54;55.25
68844;DHT22;55850;51.244;6.824;2022-07-23T07:33:40;26.09;54.94
68844;DHT22;55850;51.244;6.824;2022-07-23T07:38:46;25.93;54.52
68844;DHT22;55850;51.244;6.824;2022-07-23T07:43:51;25.68;52.90
68844;DHT22;55850;51.244;6.824;2022-07-23T07:48:59;26.12;52.50
68844;DHT22;55850;51.244;6.824;2022-07-23T07:54:07;25.64;52.80
68844;DHT22;55850;51.244;6.824;2022-07-23T07:59:12;25.25;53.72
68844;DHT22;55850;51.244;6.824;2022-07-23T08:04:20;25.07;53.68
68844;DHT22;55850;51.244;6.824;2022-07-23T08:09:25;26.24;52.44
68844;DHT22;55850;51.244;6.824;2022-07-23T08:14:31;26.84;49.46
68844;DHT22;55850;51.244;6.824;2022-07-23T08:19:39;26.87;49.71
68844;DHT22;55850;51.244;6.824;2022-07-23T08:24:44;26.34;51.10
68844;DHT22;55850;51.244;6.824;2022-07-23T08:29:50;26.16;51.44
68844;DHT22;55850;51.244;6.824;2022-07-23T08:35:00;25.62;51.22
68844;DHT22;55850;51.244;6.824;2022-07-23T08:40:07;25.13;53.36
68844;DHT22;55850;51.244;6.824;2022-07-23T08:45:16;24.94;53.03
68844;DHT22;55850;51.244;6.824;2022-07-23T08:50:26;25.85;51.18
68844;DHT22;55850;51.244;6.824;2022-07-23T08:55:32;25.00;53.43
68844;DHT22;55850;51.244;6.824;2022-07-23T09:00:37;25.08;50.56
68844;DHT22;55850;51.244;6.824;2022-07-23T09:05:46;25.18;51.42
68844;DHT22;55850;51.244;6.824;2022-07-23T09:10:53;25.17;51.55
68844;DHT22;55850;51.244;6.824;2022-07-23T09:16:00;25.71;49.59
68844;DHT22;55850;51.244;6.824;2022-07-23T09:21:17;25.48;50.14
68844;DHT22;55850;51.244;6.824;2022-07-23T09:26:30;25.39;48.47
68844;DHT22;55850;51.244;6.824;2022-07-23T09:31:45;25.41;48.54
68844;DHT22;55850;51.244;6.824;2022-07-23T09:36:54;25.72;48.60
68844;DHT22;55850;51.244;6.824;2022-07-23T09:42:13;26.07;48.39
68844;DHT22;55850;51.244;6.824;2022-07-23T09:47:24;25.96;47.88
68844;DHT22;55850;51.244;6.824;2022-07-23T09:52:34;25.49;47.59
68844;DHT22;55850;51.244;6.824;2022-07-23T09:57:41;25.48;46.55
68844;DHT22;55850;51.244;6.824;2022-07-23T10:02:47;24.82;48.13
68844;DHT22;55850;51.244;6.824;2022-07-23T10:08:06;25.07;48.21
68844;DHT22;55850;51.244;6.824;2022-07-23T10:13:46;25.81;47.75
68844;DHT22;55850;51.244;6.824;2022-07-23T10:19:34;25.73;47.44
68844;DHT22;55850;51.244;6.824;2022-07-23T10:25:00;25.92;46.52
68844;DHT22;55850;51.244;6.824;2022-07-23T10:30:20;26.06;46.53
68844;DHT22;55850;51.244;6.824;2022-07-23T10:35:33;25.94;45.20
68844;DHT22;55850;51.244;6.824;2022-07-23T10:40:56;25.76;45.32
68844;DHT22;55850;51.244;6.824;2022-07-23T10:46:22;26.06;45.31
68844;DHT22;55850;51.244;6.824;2022-07-23T10:51:29;25.04;45.91
68844;DHT22;55850;51.244;6.824;2022-07-23T11:02:23;25.94;46.26
68844;DHT22;55850;51.244;6.824;2022-07-23T11:07:29;25.82;44.55
68844;DHT22;55850;51.244;6.824;2022-07-23T11:12:35;25.54;44.50
68844;DHT22;55850;51.244;6.824;2022-07-23T11:18:01;25.97;44.21
68844;DHT22;55850;51.244;6.824;2022-07-23T11:23:07;25.55;45.28
68844;DHT22;55850;51.244;6.824;2022-07-23T11:28:17;25.61;45.19
68844;DHT22;55850;51.244;6.824;2022-07-23T11:33:30;25.30;44.76
68844;DHT22;55850;51.244;6.824;2022-07-23T11:38:37;25.31;45.83
68844;DHT22;55850;51.244;6.824;2022-07-23T11:43:44;25.14;45.85
68844;DHT22;55850;51.244;6.824;2022-07-23T11:49:01;25.35;45.77
68844;DHT22;55850;51.244;6.824;2022-07-23T11:54:47;25.04;45.75
68844;DHT22;55850;51.244;6.824;2022-07-23T11:59:55;25.55;44.75
68844;DHT22;55850;51.244;6.824;2022-07-23T12:05:06;25.94;45.68
68844;DHT22;55850;51.244;6.824;2022-07-23T12:10:14;26.09;45.32
68844;DHT22;55850;51.244;6.824;2022-07-23T12:15:21;26.22;44.46
68844;DHT22;55850;51.244;6.824;2022-07-23T12:20:31;25.73;45.42
68844;DHT22;55850;51.244;6.824;2022-07-23T12:25:38;25.55;47.09
68844;DHT22;55850;51.244;6.824;2022-07-23T12:30:46;25.59;45.72
68844;DHT22;55850;51.244;6.824;2022-07-23T12:35:59;26.04;44.97
68844;DHT22;55850;51.244;6.824;2022-07-23T12:41:06;26.30;44.88
68844;DHT22;55850;51.244;6.824;2022-07-23T12:46:13;26.54;43.93
68844;DHT22;55850;51.244;6.824;2022-07-23T12:51:26;26.55;43.17
68844;DHT22;55850;51.244;6.824;2022-07-23T12:56:34;26.60;43.69
68844;DHT22;55850;51.244;6.824;2022-07-23T13:01:44;26.33;43.48
68844;DHT22;55850;51.244;6.824;2022-07-23T13:06:56;26.32;43.27
68844;DHT22;55850;51.244;6.824;2022-07-23T13:12:07;26.44;43.40
68844;DHT22;55850;51.244;6.824;2022-07-23T13:17:14;26.14;42.66
68844;DHT22;55850;51.244;6.824;2022-07-23T13:22:24;26.43;43.64
68844;DHT22;55850;51.244;6.824;2022-07-23T13:27:31;26.37;43.33
68844;DHT22;55850;51.244;6.824;2022-07-23T13:32:41;26.33;43.24
68844;DHT22;55850;51.244;6.824;2022-07-23T13:37:50;26.10;43.68
68844;DHT22;55850;51.244;6.824;2022-07-23T13:42:56;26.17;44.38
68844;DHT22;55850;51.244;6.824;2022-07-23T13:48:03;26.23;45.21
68844;DHT22;55850;51.244;6.824;2022-07-23T13:53:15;26.09;44.35
68844;DHT22;55850;51.244;6.824;2022-07-23T13:58:23;25.94;44.92
68844;DHT22;55850;51.244;6.824;2022-07-23T14:03:29;26.02;44.99
68844;DHT22;55850;51.244;6.824;2022-07-23T14:08:40;25.94;45.09
68844;DHT22;55850;51.244;6.824;2022-07-23T14:13:46;26.00;44.23
68844;DHT22;55850;51.244;6.824;2022-07-23T14:18:53;25.79;45.78
68844;DHT22;55850;51.244;6.824;2022-07-23T14:24:01;25.79;44.96
68844;DHT22;55850;51.244;6.824;2022-07-23T14:29:07;26.00;45.54
68844;DHT22;55850;51.244;6.824;2022-07-23T14:34:13;25.93;44.50
68844;DHT22;55850;51.244;6.824;2022-07-23T14:39:32;25.79;44.83
68844;DHT22;55850;51.244;6.824;2022-07-23T14:44:38;25.88;44.64
68844;DHT22;55850;51.244;6.824;2022-07-23T14:49:44;26.00;44.02
68844;DHT22;55850;51.244;6.824;2022-07-23T14:54:52;26.00;44.38
68844;DHT22;55850;51.244;6.824;2022-07-23T14:59:58;25.90;44.89
68844;DHT22;55850;51.244;6.824;2022-07-23T15:05:04;26.07;44.64
68844;DHT22;55850;51.244;6.824;2022-07-23T15:10:12;26.04;44.76
68844;DHT22;55850;51.244;6.824;2022-07-23T15:15:21;26.00;44.52
68844;DHT22;55850;51.244;6.824;2022-07-23T15:20:28;25.82;43.80
68844;DHT22;55850;51.244;6.824;2022-07-23T15:25:44;25.78;43.85
68844;DHT22;55850;51.244;6.824;2022-07-23T15:30:52;25.86;43.75
68844;DHT22;55850;51.244;6.824;2022-07-23T15:35:58;25.93;44.50
68844;DHT22;55850;51.244;6.824;2022-07-23T15:41:06;25.89;43.76
68844;DHT22;55850;51.244;6.824;2022-07-23T15:46:11;26.06;44.03
68844;DHT22;55850;51.244;6.824;2022-07-23T15:51:26;26.16;43.24
68844;DHT22;55850;51.244;6.824;2022-07-23T15:56:35;26.19;43.60
68844;DHT22;55850;51.244;6.824;2022-07-23T16:01:40;26.03;43.39
68844;DHT22;55850;51.244;6.824;2022-07-23T16:06:46;25.94;43.98
68844;DHT22;55850;51.244;6.824;2022-07-23T16:11:54;26.00;43.73
68844;DHT22;55850;51.244;6.824;2022-07-23T16:17:00;25.89;43.91
68844;DHT22;55850;51.244;6.824;2022-07-23T16:22:05;25.94;44.06
68844;DHT22;55850;51.244;6.824;2022-07-23T16:27:15;25.93;43.85
68844;DHT22;55850;51.244;6.824;2022-07-23T16:32:21;26.00;43.89
68844;DHT22;55850;51.244;6.824;2022-07-23T16:37:26;25.96;43.92
68844;DHT22;55850;51.244;6.824;2022-07-23T16:42:35;25.99;43.23
68844;DHT22;55850;51.244;6.824;2022-07-23T16:47:41;25.81;44.22
68844;DHT22;55850;51.244;6.824;2022-07-23T16:52:47;25.72;43.26
68844;DHT22;55850;51.244;6.824;2022-07-23T16:57:55;25.66;44.06
68844;DHT22;55850;51.244;6.824;2022-07-23T17:03:00;25.66;44.35
68844;DHT22;55850;51.244;6.824;2022-07-23T17:08:08;25.57;44.51
68844;DHT22;55850;51.244;6.824;2022-07-23T17:13:16;25.66;44.03
68844;DHT22;55850;51.244;6.824;2022-07-23T17:18:21;25.57;44.58
68844;DHT22;55850;51.244;6.824;2022-07-23T17:23:27;25.72;44.34
68844;DHT22;55850;51.244;6.824;2022-07-23T17:28:35;25.59;44.53
68844;DHT22;55850;51.244;6.824;2022-07-23T17:33:40;25.82;44.33
68844;DHT22;55850;51.244;6.824;2022-07-23T17:38:46;25.75;43.61
68844;DHT22;55850;51.244;6.824;2022-07-23T17:43:57;25.57;44.15
68844;DHT22;55850;51.244;6.824;2022-07-23T17:49:04;25.41;44.63
68844;DHT22;55850;51.244;6.824;2022-07-23T17:54:11;25.54;45.20
68844;DHT22;55850;51.244;6.824;2022-07-23T17:59:20;25.42;46.12
68844;DHT22;55850;51.244;6.824;2022-07-23T18:04:26;25.18;46.47
68844;DHT22;55850;51.244;6.824;2022-07-23T18:09:32;25.24;46.18
68844;DHT22;55850;51.244;6.824;2022-07-23T18:14:40;25.37;45.96
68844;DHT22;55850;51.244;6.824;2022-07-23T18:19:45;25.35;46.25
68844;DHT22;55850;51.244;6.824;2022-07-23T18:24:51;25.30;46.36
68844;DHT22;55850;51.244;6.824;2022-07-23T18:30:00;25.30;46.54
68844;DHT22;55850;51.244;6.824;2022-07-23T18:35:07;25.08;47.09
68844;DHT22;55850;51.244;6.824;2022-07-23T18:40:16;25.04;47.09
68844;DHT22;55850;51.244;6.824;2022-07-23T18:45:24;24.98;48.03
68844;DHT22;55850;51.244;6.824;2022-07-23T18:50:30;24.82;48.92
68844;DHT22;55850;51.244;6.824;2022-07-23T18:55:39;24.86;49.18
68844;DHT22;55850;51.244;6.824;2022-07-23T19:00:50;24.52;50.32
68844;DHT22;55850;51.244;6.824;2022-07-23T19:05:55;24.39;50.19
68844;DHT22;55850;51.244;6.824;2022-07-23T19:11:01;24.39;50.47
68844;DHT22;55850;51.244;6.824;2022-07-23T19:16:10;24.22;51.00
68844;DHT22;55850;51.244;6.824;2022-07-23T19:21:16;24.17;51.33
68844;DHT22;55850;51.244;6.824;2022-07-23T19:26:21;24.01;51.54
68844;DHT22;55850;51.244;6.824;2022-07-23T19:31:29;23.94;51.87
68844;DHT22;55850;51.244;6.824;2022-07-23T19:36:35;23.94;52.02
68844;DHT22;55850;51.244;6.824;2022-07-23T19:41:40;23.82;52.16
68844;DHT22;55850;51.244;6.824;2022-07-23T19:46:48;23.74;52.62
68844;DHT22;55850;51.244;6.824;2022-07-23T19:51:54;23.75;52.33
68844;DHT22;55850;51.244;6.824;2022-07-23T19:56:59;23.66;52.58
68844;DHT22;55850;51.244;6.824;2022-07-23T20:02:07;23.20;53.89
68844;DHT22;55850;51.244;6.824;2022-07-23T20:07:16;23.16;54.06
68844;DHT22;55850;51.244;6.824;2022-07-23T20:12:22;22.95;54.53
68844;DHT22;55850;51.244;6.824;2022-07-23T20:17:30;22.89;55.07
68844;DHT22;55850;51.244;6.824;2022-07-23T20:22:36;22.72;55.53
68844;DHT22;55850;51.244;6.824;2022-07-23T20:27:41;22.88;55.04
68844;DHT22;55850;51.244;6.824;2022-07-23T20:32:49;22.69;56.11
68844;DHT22;55850;51.244;6.824;2022-07-23T20:37:56;22.81;55.62
68844;DHT22;55850;51.244;6.824;2022-07-23T20:43:03;22.55;56.13
68844;DHT22;55850;51.244;6.824;2022-07-23T20:48:11;22.44;56.19
68844;DHT22;55850;51.244;6.824;2022-07-23T20:53:17;22.43;56.44
68844;DHT22;55850;51.244;6.824;2022-07-23T20:58:22;22.27;56.47
68844;DHT22;55850;51.244;6.824;2022-07-23T21:03:30;22.29;55.85
68844;DHT22;55850;51.244;6.824;2022-07-23T21:08:36;22.24;56.01
68844;DHT22;55850;51.244;6.824;2022-07-23T21:13:41;22.25;56.41
68844;DHT22;55850;51.244;6.824;2022-07-23T21:18:51;22.25;55.96
68844;DHT22;55850;51.244;6.824;2022-07-23T21:23:56;22.07;56.83
68844;DHT22;55850;51.244;6.824;2022-07-23T21:29:02;22.04;56.69
68844;DHT22;55850;51.244;6.824;2022-07-23T21:34:12;22.11;56.73
68844;DHT22;55850;51.244;6.824;2022-07-23T21:39:18;22.10;56.55
68844;DHT22;55850;51.244;6.824;2022-07-23T21:44:23;22.10;56.62
68844;DHT22;55850;51.244;6.824;2022-07-23T21:49:31;21.94;57.30
68844;DHT22;55850;51.244;6.824;2022-07-23T21:54:37;22.00;57.16
68844;DHT22;55850;51.244;6.824;2022-07-23T21:59:43;21.93;57.08
68844;DHT22;55850;51.244;6.824;2022-07-23T22:04:54;21.80;57.22
68844;DHT22;55850;51.244;6.824;2022-07-23T22:10:00;22.41;54.54
68844;DHT22;55850;51.244;6.824;2022-07-23T22:15:08;21.85;56.00
68844;DHT22;55850;51.244;6.824;2022-07-23T22:20:17;21.58;57.66
68844;DHT22;55850;51.244;6.824;2022-07-23T22:25:22;21.46;57.57
68844;DHT22;55850;51.244;6.824;2022-07-23T22:30:27;21.24;58.50
68844;DHT22;55850;51.244;6.824;2022-07-23T22:35:35;21.00;59.58
68844;DHT22;55850;51.244;6.824;2022-07-23T22:40:41;20.88;60.45
68844;DHT22;55850;51.244;6.824;2022-07-23T22:45:46;20.76;60.79
68844;DHT22;55850;51.244;6.824;2022-07-23T22:50:54;20.67;61.07
68844;DHT22;55850;51.244;6.824;2022-07-23T22:56:00;20.84;60.56
68844;DHT22;55850;51.244;6.824;2022-07-23T23:01:05;21.14;59.50
68844;DHT22;55850;51.244;6.824;2022-07-23T23:06:13;20.98;59.89
68844;DHT22;55850;51.244;6.824;2022-07-23T23:11:19;20.88;59.30
68844;DHT22;55850;51.244;6.824;2022-07-23T23:16:24;20.74;60.03
68844;DHT22;55850;51.244;6.824;2022-07-23T23:21:32;20.79;59.64
68844;DHT22;55850;51.244;6.824;2022-07-23T23:26:38;20.73;60.06
68844;DHT22;55850;51.244;6.824;2022-07-23T23:31:43;20.57;60.48
68844;DHT22;55850;51.244;6.824;2022-07-23T23:36:51;20.63;60.32
68844;DHT22;55850;51.244;6.824;2022-07-23T23:41:57;20.64;60.35
68844;DHT22;55850;51.244;6.824;2022-07-23T23:47:02;20.49;60.70
68844;DHT22;55850;51.244;6.824;2022-07-23T23:52:10;20.46;60.47
68844;DHT22;55850;51.244;6.824;2022-07-23T23:57:16;20.57;60.45
